»·PEaware :: N335AK KSAC-KACV

N335AK :: KSAC-KACV

FLIGHT INFORMATION

Flight Status: Arrived
Operator: Privately registered:
United States
More flights under this callsign
Pilot: Gabor H. (24209)
Aircraft: Unknown
(EPIC)
More flights by this aircraft type
Origin: KSAC Sacramento Executive
United States
Destination: KACV Arcata
United States
More flights between these airports :: More routes between these airports
Route: SAC V23 RBL V195 YAGER
File this flight plan on PilotEdge
Remarks:
Altitude:
(Current/Filed)
16,000ft
Speed:
(Current/Filed)
325kts
Departed: 16-Nov-20 03:00 PM
Arrived: 16-Nov-20 03:45 PM
Distance/Time
Traveled:
191nm/0:45
Distance/Time
To Go:
Arrived

Flight Plot

Page will automatically refresh every two minutes.

Flight plan parsing failed; only flown route is shown


Map Options




Map Legend


Flown Route
Filed Route
Departure Airport
Arrival Airport
Navaid (VOR, NDB)
Fix

Horizontal Profiles

Position Reports

Time Latitude Longitude Heading Altitude Ground
Speed
16-Nov-20 14:48 38.514770 -121.498394 226 23ft 0kts
16-Nov-20 14:49 38.514770 -121.498394 226 23ft 0kts
16-Nov-20 14:50 38.514770 -121.498394 226 23ft 0kts
16-Nov-20 14:51 38.514770 -121.498394 226 23ft 0kts
16-Nov-20 14:52 38.514770 -121.498394 226 23ft 0kts
16-Nov-20 14:53 38.514770 -121.498394 226 23ft 0kts
16-Nov-20 14:54 38.514762 -121.498404 226 23ft 1kts
16-Nov-20 14:55 38.513742 -121.495322 42 24ft 11kts
16-Nov-20 14:56 38.517175 -121.492508 30 25ft 16kts
16-Nov-20 14:57 38.519186 -121.490432 98 25ft 0kts
16-Nov-20 14:58 38.518200 -121.489923 216 26ft 15kts
16-Nov-20 14:59 38.498231 -121.522724 263 1460ft 194kts
16-Nov-20 15:00 38.492665 -121.595705 263 4514ft 220kts
16-Nov-20 15:01 38.513612 -121.657756 1 7668ft 230kts
16-Nov-20 15:02 38.578806 -121.660505 353 10732ft 240kts
16-Nov-20 15:03 38.648052 -121.666780 354 13169ft 264kts
16-Nov-20 15:04 38.723467 -121.673640 353 15188ft 279kts
16-Nov-20 15:05 38.804209 -121.681020 353 16034ft 312kts
16-Nov-20 15:06 38.893665 -121.695346 344 16031ft 333kts
16-Nov-20 15:07 38.984805 -121.724505 342 16035ft 341kts
16-Nov-20 15:08 39.077021 -121.754271 341 16040ft 343kts
16-Nov-20 15:09 39.169303 -121.784118 341 16009ft 344kts
16-Nov-20 15:10 39.262025 -121.814184 341 16008ft 343kts
16-Nov-20 15:11 39.353118 -121.848752 333 16010ft 340kts
16-Nov-20 15:12 39.440698 -121.893655 333 16045ft 339kts
16-Nov-20 15:13 39.528245 -121.938834 333 16046ft 340kts
16-Nov-20 15:14 39.616289 -121.984393 333 16046ft 340kts
16-Nov-20 15:15 39.703980 -122.029898 333 16046ft 340kts
16-Nov-20 15:16 39.791691 -122.075535 333 16046ft 340kts
16-Nov-20 15:17 39.879296 -122.121239 333 16044ft 340kts
16-Nov-20 15:18 39.967273 -122.167266 333 16034ft 341kts
16-Nov-20 15:19 40.055041 -122.213311 333 16029ft 341kts
16-Nov-20 15:20 40.115924 -122.295478 288 16026ft 319kts
16-Nov-20 15:21 40.148354 -122.403088 287 16023ft 318kts
16-Nov-20 15:22 40.180155 -122.510847 287 16021ft 318kts
16-Nov-20 15:23 40.211852 -122.618710 287 16017ft 318kts
16-Nov-20 15:24 40.243543 -122.727007 286 16018ft 318kts
16-Nov-20 15:25 40.275068 -122.835191 286 16014ft 318kts
16-Nov-20 15:26 40.306552 -122.943660 285 16010ft 318kts
16-Nov-20 15:27 40.337913 -123.052178 285 16007ft 319kts
16-Nov-20 15:28 40.369329 -123.161382 284 15994ft 321kts
16-Nov-20 15:29 40.400885 -123.271516 284 15939ft 322kts
16-Nov-20 15:30 40.432256 -123.381434 284 15772ft 325kts
16-Nov-20 15:31 40.463281 -123.490504 284 13907ft 310kts
16-Nov-20 15:32 40.492614 -123.594147 284 12255ft 301kts
16-Nov-20 15:33 40.520494 -123.693003 283 11464ft 283kts
16-Nov-20 15:34 40.547136 -123.787848 283 11009ft 272kts
16-Nov-20 15:35 40.604437 -123.855885 329 9404ft 296kts
16-Nov-20 15:36 40.676504 -123.904348 332 6788ft 288kts
16-Nov-20 15:37 40.744359 -123.950037 335 4864ft 261kts
16-Nov-20 15:38 40.800407 -123.987564 330 3314ft 206kts
16-Nov-20 15:39 40.838802 -124.013799 330 3094ft 124kts
16-Nov-20 15:40 40.869739 -124.034780 331 2474ft 122kts
16-Nov-20 15:41 40.900134 -124.055356 332 1823ft 125kts
16-Nov-20 15:42 40.930151 -124.075685 332 1207ft 96kts
16-Nov-20 15:43 40.955247 -124.092721 332 620ft 106kts
16-Nov-20 15:44 40.977019 -124.107590 334 225ft 31kts
16-Nov-20 15:45 40.973619 -124.107426 96 225ft 16kts
16-Nov-20 15:46 40.972564 -124.106895 331 225ft 0kts
16-Nov-20 15:47 40.972564 -124.106895 331 225ft 0kts
16-Nov-20 15:48 40.972564 -124.106895 331 225ft 0kts
16-Nov-20 15:49 40.972564 -124.106895 331 225ft 0kts
16-Nov-20 15:50 40.972564 -124.106895 331 225ft 0kts
16-Nov-20 15:51 40.972564 -124.106895 331 225ft 0kts
16-Nov-20 15:52 40.972564 -124.106895 331 225ft 0kts
16-Nov-20 15:53 40.972564 -124.106895 331 225ft 0kts
16-Nov-20 15:54 40.972564 -124.106895 331 225ft 0kts
16-Nov-20 15:55 40.972564 -124.106895 331 225ft 0kts
16-Nov-20 15:56 40.972564 -124.106895 331 225ft 0kts
16-Nov-20 15:57 40.972564 -124.106895 331 225ft 0kts
16-Nov-20 15:58 40.972564 -124.106895 331 225ft 0kts

Navigation Log

Ident Type
Flight plan parsing failed, navigation log unavailable